sensor_id;sensor_type;location;lat;lon;timestamp;temperature;humidity
70851;DHT22;58475;49.662;9.636;2023-11-19T00:00:10;8.01;96.22
70851;DHT22;58475;49.662;9.636;2023-11-19T00:02:39;7.97;96.09
70851;DHT22;58475;49.662;9.636;2023-11-19T00:05:05;7.88;96.42
70851;DHT22;58475;49.662;9.636;2023-11-19T00:07:37;7.81;96.66
70851;DHT22;58475;49.662;9.636;2023-11-19T00:10:13;7.85;97.03
70851;DHT22;58475;49.662;9.636;2023-11-19T00:12:41;7.87;96.79
70851;DHT22;58475;49.662;9.636;2023-11-19T00:15:07;7.91;96.65
70851;DHT22;58475;49.662;9.636;2023-11-19T00:17:40;7.90;96.52
70851;DHT22;58475;49.662;9.636;2023-11-19T00:20:10;8.01;96.40
70851;DHT22;58475;49.662;9.636;2023-11-19T00:22:36;7.99;96.36
70851;DHT22;58475;49.662;9.636;2023-11-19T00:25:01;7.87;96.84
70851;DHT22;58475;49.662;9.636;2023-11-19T00:27:27;7.90;96.80
70851;DHT22;58475;49.662;9.636;2023-11-19T00:29:52;7.88;96.69
70851;DHT22;58475;49.662;9.636;2023-11-19T00:32:18;7.87;96.69
70851;DHT22;58475;49.662;9.636;2023-11-19T00:34:46;7.88;96.71
70851;DHT22;58475;49.662;9.636;2023-11-19T00:37:13;7.94;96.55
70851;DHT22;58475;49.662;9.636;2023-11-19T00:39:39;8.06;96.14
70851;DHT22;58475;49.662;9.636;2023-11-19T00:42:04;7.95;96.76
70851;DHT22;58475;49.662;9.636;2023-11-19T00:44:30;7.91;96.65
70851;DHT22;58475;49.662;9.636;2023-11-19T00:46:56;7.88;96.87
70851;DHT22;58475;49.662;9.636;2023-11-19T00:49:21;7.93;96.91
70851;DHT22;58475;49.662;9.636;2023-11-19T00:51:46;7.90;96.74
70851;DHT22;58475;49.662;9.636;2023-11-19T00:54:12;7.83;97.04
70851;DHT22;58475;49.662;9.636;2023-11-19T00:56:37;7.93;96.85
70851;DHT22;58475;49.662;9.636;2023-11-19T00:59:02;7.83;97.10
70851;DHT22;58475;49.662;9.636;2023-11-19T01:01:29;7.94;97.19
70851;DHT22;58475;49.662;9.636;2023-11-19T01:03:55;7.90;97.17
70851;DHT22;58475;49.662;9.636;2023-11-19T01:06:29;7.85;97.57
70851;DHT22;58475;49.662;9.636;2023-11-19T01:08:55;8.05;97.21
70851;DHT22;58475;49.662;9.636;2023-11-19T01:11:23;8.09;96.79
70851;DHT22;58475;49.662;9.636;2023-11-19T01:13:49;8.18;96.48
70851;DHT22;58475;49.662;9.636;2023-11-19T01:16:15;8.14;96.65
70851;DHT22;58475;49.662;9.636;2023-11-19T01:18:41;7.97;97.62
70851;DHT22;58475;49.662;9.636;2023-11-19T01:21:06;8.20;97.27
70851;DHT22;58475;49.662;9.636;2023-11-19T01:23:31;8.25;96.82
70851;DHT22;58475;49.662;9.636;2023-11-19T01:25:58;8.11;97.20
70851;DHT22;58475;49.662;9.636;2023-11-19T01:28:23;8.31;96.71
70851;DHT22;58475;49.662;9.636;2023-11-19T01:30:52;8.31;96.91
70851;DHT22;58475;49.662;9.636;2023-11-19T01:33:18;8.26;96.87
70851;DHT22;58475;49.662;9.636;2023-11-19T01:35:43;8.29;96.87
70851;DHT22;58475;49.662;9.636;2023-11-19T01:38:09;8.33;96.92
70851;DHT22;58475;49.662;9.636;2023-11-19T01:40:34;8.55;96.30
70851;DHT22;58475;49.662;9.636;2023-11-19T01:43:01;8.55;96.33
70851;DHT22;58475;49.662;9.636;2023-11-19T01:45:28;8.42;96.36
70851;DHT22;58475;49.662;9.636;2023-11-19T01:47:55;8.49;96.44
70851;DHT22;58475;49.662;9.636;2023-11-19T01:50:21;8.55;96.26
70851;DHT22;58475;49.662;9.636;2023-11-19T01:52:47;8.55;96.18
70851;DHT22;58475;49.662;9.636;2023-11-19T01:55:13;8.57;95.98
70851;DHT22;58475;49.662;9.636;2023-11-19T01:57:39;8.50;96.26
70851;DHT22;58475;49.662;9.636;2023-11-19T02:00:07;8.38;96.70
70851;DHT22;58475;49.662;9.636;2023-11-19T02:02:40;8.35;96.87
70851;DHT22;58475;49.662;9.636;2023-11-19T02:05:06;8.39;96.94
70851;DHT22;58475;49.662;9.636;2023-11-19T02:07:31;8.53;96.81
70851;DHT22;58475;49.662;9.636;2023-11-19T02:09:57;8.48;96.61
70851;DHT22;58475;49.662;9.636;2023-11-19T02:12:26;8.70;96.31
70851;DHT22;58475;49.662;9.636;2023-11-19T02:14:53;8.50;96.11
70851;DHT22;58475;49.662;9.636;2023-11-19T02:17:30;8.45;96.73
70851;DHT22;58475;49.662;9.636;2023-11-19T02:20:00;8.62;96.56
70851;DHT22;58475;49.662;9.636;2023-11-19T02:22:27;8.81;95.28
70851;DHT22;58475;49.662;9.636;2023-11-19T02:24:59;8.63;95.56
70851;DHT22;58475;49.662;9.636;2023-11-19T02:30:16;8.72;95.44
70851;DHT22;58475;49.662;9.636;2023-11-19T02:32:42;8.48;96.58
70851;DHT22;58475;49.662;9.636;2023-11-19T02:35:07;8.55;96.38
70851;DHT22;58475;49.662;9.636;2023-11-19T02:37:34;8.49;96.32
70851;DHT22;58475;49.662;9.636;2023-11-19T02:39:59;8.50;96.70
70851;DHT22;58475;49.662;9.636;2023-11-19T02:42:28;8.70;95.92
70851;DHT22;58475;49.662;9.636;2023-11-19T02:44:53;8.49;96.47
70851;DHT22;58475;49.662;9.636;2023-11-19T02:47:19;8.59;96.35
70851;DHT22;58475;49.662;9.636;2023-11-19T02:49:50;8.52;96.73
70851;DHT22;58475;49.662;9.636;2023-11-19T02:52:15;8.41;97.35
70851;DHT22;58475;49.662;9.636;2023-11-19T02:54:43;8.45;97.25
70851;DHT22;58475;49.662;9.636;2023-11-19T02:57:08;8.50;97.07
70851;DHT22;58475;49.662;9.636;2023-11-19T02:59:39;8.62;96.89
70851;DHT22;58475;49.662;9.636;2023-11-19T03:02:07;8.64;96.73
70851;DHT22;58475;49.662;9.636;2023-11-19T03:04:39;8.63;96.44
70851;DHT22;58475;49.662;9.636;2023-11-19T03:07:06;8.53;96.55
70851;DHT22;58475;49.662;9.636;2023-11-19T03:09:33;8.60;96.78
70851;DHT22;58475;49.662;9.636;2023-11-19T03:11:59;8.55;96.85
70851;DHT22;58475;49.662;9.636;2023-11-19T03:14:24;8.55;96.95
70851;DHT22;58475;49.662;9.636;2023-11-19T03:16:50;8.53;96.95
70851;DHT22;58475;49.662;9.636;2023-11-19T03:19:16;8.69;96.66
70851;DHT22;58475;49.662;9.636;2023-11-19T03:21:41;8.52;96.75
70851;DHT22;58475;49.662;9.636;2023-11-19T03:24:07;8.55;97.08
70851;DHT22;58475;49.662;9.636;2023-11-19T03:26:33;8.60;96.47
70851;DHT22;58475;49.662;9.636;2023-11-19T03:28:59;8.52;97.19
70851;DHT22;58475;49.662;9.636;2023-11-19T03:31:24;8.53;97.26
70851;DHT22;58475;49.662;9.636;2023-11-19T03:33:51;8.62;97.31
70851;DHT22;58475;49.662;9.636;2023-11-19T03:36:16;8.62;97.20
70851;DHT22;58475;49.662;9.636;2023-11-19T03:38:42;8.46;97.83
70851;DHT22;58475;49.662;9.636;2023-11-19T03:41:11;8.53;97.97
70851;DHT22;58475;49.662;9.636;2023-11-19T03:43:38;8.48;97.91
70851;DHT22;58475;49.662;9.636;2023-11-19T03:46:04;8.49;98.28
70851;DHT22;58475;49.662;9.636;2023-11-19T03:48:31;8.49;97.93
70851;DHT22;58475;49.662;9.636;2023-11-19T03:50:56;8.66;97.80
70851;DHT22;58475;49.662;9.636;2023-11-19T03:53:21;8.72;97.66
70851;DHT22;58475;49.662;9.636;2023-11-19T03:55:47;8.79;97.59
70851;DHT22;58475;49.662;9.636;2023-11-19T03:58:12;8.91;97.22
70851;DHT22;58475;49.662;9.636;2023-11-19T04:00:37;9.00;97.49
70851;DHT22;58475;49.662;9.636;2023-11-19T04:03:03;8.93;97.51
70851;DHT22;58475;49.662;9.636;2023-11-19T04:05:28;8.96;97.44
70851;DHT22;58475;49.662;9.636;2023-11-19T04:07:54;9.07;97.43
70851;DHT22;58475;49.662;9.636;2023-11-19T04:10:19;9.20;97.74
70851;DHT22;58475;49.662;9.636;2023-11-19T04:12:45;9.30;97.18
70851;DHT22;58475;49.662;9.636;2023-11-19T04:15:11;9.32;97.26
70851;DHT22;58475;49.662;9.636;2023-11-19T04:17:36;9.35;97.75
70851;DHT22;58475;49.662;9.636;2023-11-19T04:20:02;9.55;97.21
70851;DHT22;58475;49.662;9.636;2023-11-19T04:22:29;9.51;97.37
70851;DHT22;58475;49.662;9.636;2023-11-19T04:24:54;9.65;97.15
70851;DHT22;58475;49.662;9.636;2023-11-19T04:27:21;9.71;97.09
70851;DHT22;58475;49.662;9.636;2023-11-19T04:29:47;9.68;97.03
70851;DHT22;58475;49.662;9.636;2023-11-19T04:32:13;9.71;97.44
70851;DHT22;58475;49.662;9.636;2023-11-19T04:34:39;9.81;96.98
70851;DHT22;58475;49.662;9.636;2023-11-19T04:37:04;9.78;97.19
70851;DHT22;58475;49.662;9.636;2023-11-19T04:39:29;9.79;97.24
70851;DHT22;58475;49.662;9.636;2023-11-19T04:41:55;9.82;97.35
70851;DHT22;58475;49.662;9.636;2023-11-19T04:44:21;9.99;96.43
70851;DHT22;58475;49.662;9.636;2023-11-19T04:46:46;9.90;97.13
70851;DHT22;58475;49.662;9.636;2023-11-19T04:49:13;9.85;97.43
70851;DHT22;58475;49.662;9.636;2023-11-19T04:51:43;9.87;97.36
70851;DHT22;58475;49.662;9.636;2023-11-19T04:54:09;9.93;97.41
70851;DHT22;58475;49.662;9.636;2023-11-19T04:56:36;10.00;97.20
70851;DHT22;58475;49.662;9.636;2023-11-19T04:59:02;9.87;97.66
70851;DHT22;58475;49.662;9.636;2023-11-19T05:01:28;9.87;97.70
70851;DHT22;58475;49.662;9.636;2023-11-19T05:03:54;9.93;97.85
70851;DHT22;58475;49.662;9.636;2023-11-19T05:06:19;9.86;98.03
70851;DHT22;58475;49.662;9.636;2023-11-19T05:08:45;9.94;98.11
70851;DHT22;58475;49.662;9.636;2023-11-19T05:11:11;9.90;97.99
70851;DHT22;58475;49.662;9.636;2023-11-19T05:13:38;9.97;98.01
70851;DHT22;58475;49.662;9.636;2023-11-19T05:16:04;10.03;97.45
70851;DHT22;58475;49.662;9.636;2023-11-19T05:18:30;9.89;97.68
70851;DHT22;58475;49.662;9.636;2023-11-19T05:20:55;9.81;98.00
70851;DHT22;58475;49.662;9.636;2023-11-19T05:23:20;9.76;98.32
70851;DHT22;58475;49.662;9.636;2023-11-19T05:25:46;9.83;98.58
70851;DHT22;58475;49.662;9.636;2023-11-19T05:28:12;9.87;98.23
70851;DHT22;58475;49.662;9.636;2023-11-19T05:30:39;9.99;98.09
70851;DHT22;58475;49.662;9.636;2023-11-19T05:33:05;10.04;98.02
70851;DHT22;58475;49.662;9.636;2023-11-19T05:35:31;10.12;97.72
70851;DHT22;58475;49.662;9.636;2023-11-19T05:37:57;10.16;97.51
70851;DHT22;58475;49.662;9.636;2023-11-19T05:40:22;10.18;97.30
70851;DHT22;58475;49.662;9.636;2023-11-19T05:42:48;10.18;97.12
70851;DHT22;58475;49.662;9.636;2023-11-19T05:45:13;10.21;96.91
70851;DHT22;58475;49.662;9.636;2023-11-19T05:47:39;10.36;96.73
70851;DHT22;58475;49.662;9.636;2023-11-19T05:50:04;10.30;96.72
70851;DHT22;58475;49.662;9.636;2023-11-19T05:52:31;10.29;97.00
70851;DHT22;58475;49.662;9.636;2023-11-19T05:55:01;10.31;96.96
70851;DHT22;58475;49.662;9.636;2023-11-19T05:57:31;10.29;97.20
70851;DHT22;58475;49.662;9.636;2023-11-19T05:59:56;10.38;97.16
70851;DHT22;58475;49.662;9.636;2023-11-19T06:02:22;10.51;96.91
70851;DHT22;58475;49.662;9.636;2023-11-19T06:04:47;10.45;96.91
70851;DHT22;58475;49.662;9.636;2023-11-19T06:07:13;10.68;95.97
70851;DHT22;58475;49.662;9.636;2023-11-19T06:09:40;10.62;96.08
70851;DHT22;58475;49.662;9.636;2023-11-19T06:12:06;10.50;96.77
70851;DHT22;58475;49.662;9.636;2023-11-19T06:14:32;10.52;96.98
70851;DHT22;58475;49.662;9.636;2023-11-19T06:16:58;10.51;97.03
70851;DHT22;58475;49.662;9.636;2023-11-19T06:19:23;10.55;97.30
70851;DHT22;58475;49.662;9.636;2023-11-19T06:21:50;10.67;97.03
70851;DHT22;58475;49.662;9.636;2023-11-19T06:24:15;10.67;96.87
70851;DHT22;58475;49.662;9.636;2023-11-19T06:26:40;10.62;96.90
70851;DHT22;58475;49.662;9.636;2023-11-19T06:29:06;10.71;97.29
70851;DHT22;58475;49.662;9.636;2023-11-19T06:31:31;10.83;96.90
70851;DHT22;58475;49.662;9.636;2023-11-19T06:33:57;10.74;96.87
70851;DHT22;58475;49.662;9.636;2023-11-19T06:36:22;10.71;97.08
70851;DHT22;58475;49.662;9.636;2023-11-19T06:38:47;10.76;97.01
70851;DHT22;58475;49.662;9.636;2023-11-19T06:41:13;10.74;97.41
70851;DHT22;58475;49.662;9.636;2023-11-19T06:43:38;10.88;97.03
70851;DHT22;58475;49.662;9.636;2023-11-19T06:46:04;10.82;97.17
70851;DHT22;58475;49.662;9.636;2023-11-19T06:48:34;10.81;97.69
70851;DHT22;58475;49.662;9.636;2023-11-19T06:51:00;10.89;97.60
70851;DHT22;58475;49.662;9.636;2023-11-19T06:53:25;10.99;97.29
70851;DHT22;58475;49.662;9.636;2023-11-19T06:55:53;11.02;97.13
70851;DHT22;58475;49.662;9.636;2023-11-19T06:58:19;11.13;97.32
70851;DHT22;58475;49.662;9.636;2023-11-19T07:00:44;11.08;97.18
70851;DHT22;58475;49.662;9.636;2023-11-19T07:03:11;11.19;96.81
70851;DHT22;58475;49.662;9.636;2023-11-19T07:05:36;11.09;97.58
70851;DHT22;58475;49.662;9.636;2023-11-19T07:08:04;11.08;97.77
70851;DHT22;58475;49.662;9.636;2023-11-19T07:10:30;11.20;97.68
70851;DHT22;58475;49.662;9.636;2023-11-19T07:12:56;11.20;97.61
70851;DHT22;58475;49.662;9.636;2023-11-19T07:15:21;11.24;97.54
70851;DHT22;58475;49.662;9.636;2023-11-19T07:17:46;11.22;97.79
70851;DHT22;58475;49.662;9.636;2023-11-19T07:20:13;11.23;97.86
70851;DHT22;58475;49.662;9.636;2023-11-19T07:22:43;11.29;97.72
70851;DHT22;58475;49.662;9.636;2023-11-19T07:25:12;11.36;97.67
70851;DHT22;58475;49.662;9.636;2023-11-19T07:27:38;11.42;97.55
70851;DHT22;58475;49.662;9.636;2023-11-19T07:30:05;11.49;97.52
70851;DHT22;58475;49.662;9.636;2023-11-19T07:32:30;11.67;97.06
70851;DHT22;58475;49.662;9.636;2023-11-19T07:34:55;11.66;96.82
70851;DHT22;58475;49.662;9.636;2023-11-19T07:37:21;11.57;97.18
70851;DHT22;58475;49.662;9.636;2023-11-19T07:39:47;11.69;97.21
70851;DHT22;58475;49.662;9.636;2023-11-19T07:42:13;11.75;97.13
70851;DHT22;58475;49.662;9.636;2023-11-19T07:44:38;11.73;97.03
70851;DHT22;58475;49.662;9.636;2023-11-19T07:47:04;11.85;96.74
70851;DHT22;58475;49.662;9.636;2023-11-19T07:49:29;11.90;96.46
70851;DHT22;58475;49.662;9.636;2023-11-19T07:51:56;11.95;96.31
70851;DHT22;58475;49.662;9.636;2023-11-19T07:54:21;11.97;96.48
70851;DHT22;58475;49.662;9.636;2023-11-19T07:56:47;12.11;96.33
70851;DHT22;58475;49.662;9.636;2023-11-19T07:59:12;12.15;96.25
70851;DHT22;58475;49.662;9.636;2023-11-19T08:01:37;12.08;96.30
70851;DHT22;58475;49.662;9.636;2023-11-19T08:04:03;12.25;95.91
70851;DHT22;58475;49.662;9.636;2023-11-19T08:06:28;12.38;95.09
70851;DHT22;58475;49.662;9.636;2023-11-19T08:08:54;12.31;95.59
70851;DHT22;58475;49.662;9.636;2023-11-19T08:11:19;12.45;95.33
70851;DHT22;58475;49.662;9.636;2023-11-19T08:13:47;12.52;95.42
70851;DHT22;58475;49.662;9.636;2023-11-19T08:16:13;12.70;95.07
70851;DHT22;58475;49.662;9.636;2023-11-19T08:18:44;12.89;94.03
70851;DHT22;58475;49.662;9.636;2023-11-19T08:21:10;12.84;93.96
70851;DHT22;58475;49.662;9.636;2023-11-19T08:23:36;12.80;94.53
70851;DHT22;58475;49.662;9.636;2023-11-19T08:26:01;12.80;94.54
70851;DHT22;58475;49.662;9.636;2023-11-19T08:28:27;12.84;94.34
70851;DHT22;58475;49.662;9.636;2023-11-19T08:30:53;12.97;93.89
70851;DHT22;58475;49.662;9.636;2023-11-19T08:33:18;13.03;93.87
70851;DHT22;58475;49.662;9.636;2023-11-19T08:35:43;13.21;94.26
70851;DHT22;58475;49.662;9.636;2023-11-19T08:38:09;13.75;94.72
70851;DHT22;58475;49.662;9.636;2023-11-19T08:40:34;14.12;92.18
70851;DHT22;58475;49.662;9.636;2023-11-19T08:43:00;14.65;91.39
70851;DHT22;58475;49.662;9.636;2023-11-19T08:45:25;15.10;90.66
70851;DHT22;58475;49.662;9.636;2023-11-19T08:47:51;14.99;87.53
70851;DHT22;58475;49.662;9.636;2023-11-19T08:50:16;14.89;88.32
70851;DHT22;58475;49.662;9.636;2023-11-19T08:52:42;14.71;88.15
70851;DHT22;58475;49.662;9.636;2023-11-19T08:55:07;14.69;87.88
70851;DHT22;58475;49.662;9.636;2023-11-19T08:57:34;14.50;88.81
70851;DHT22;58475;49.662;9.636;2023-11-19T09:00:00;14.64;88.24
70851;DHT22;58475;49.662;9.636;2023-11-19T09:02:25;14.84;89.02
70851;DHT22;58475;49.662;9.636;2023-11-19T09:04:51;15.13;87.50
70851;DHT22;58475;49.662;9.636;2023-11-19T09:07:16;15.29;86.19
70851;DHT22;58475;49.662;9.636;2023-11-19T09:09:42;15.36;87.09
70851;DHT22;58475;49.662;9.636;2023-11-19T09:12:07;15.40;85.70
70851;DHT22;58475;49.662;9.636;2023-11-19T09:14:32;15.43;86.67
70851;DHT22;58475;49.662;9.636;2023-11-19T09:16:58;15.83;86.94
70851;DHT22;58475;49.662;9.636;2023-11-19T09:19:24;16.17;85.09
70851;DHT22;58475;49.662;9.636;2023-11-19T09:21:49;16.25;82.84
70851;DHT22;58475;49.662;9.636;2023-11-19T09:24:15;16.08;82.51
70851;DHT22;58475;49.662;9.636;2023-11-19T09:26:41;16.29;84.50
70851;DHT22;58475;49.662;9.636;2023-11-19T09:29:10;16.29;83.70
70851;DHT22;58475;49.662;9.636;2023-11-19T09:31:37;16.12;82.09
70851;DHT22;58475;49.662;9.636;2023-11-19T09:34:04;16.01;83.53
70851;DHT22;58475;49.662;9.636;2023-11-19T09:36:29;15.84;83.92
70851;DHT22;58475;49.662;9.636;2023-11-19T09:38:55;15.74;84.47
70851;DHT22;58475;49.662;9.636;2023-11-19T09:41:20;15.46;84.52
70851;DHT22;58475;49.662;9.636;2023-11-19T09:43:46;15.08;85.65
70851;DHT22;58475;49.662;9.636;2023-11-19T09:46:14;15.10;86.31
70851;DHT22;58475;49.662;9.636;2023-11-19T09:48:40;14.98;85.99
70851;DHT22;58475;49.662;9.636;2023-11-19T09:51:07;14.72;86.16
70851;DHT22;58475;49.662;9.636;2023-11-19T09:53:33;14.57;87.02
70851;DHT22;58475;49.662;9.636;2023-11-19T09:56:00;14.63;87.29
70851;DHT22;58475;49.662;9.636;2023-11-19T09:58:29;14.78;85.95
70851;DHT22;58475;49.662;9.636;2023-11-19T10:00:54;14.92;86.59
70851;DHT22;58475;49.662;9.636;2023-11-19T10:03:20;14.87;85.43
70851;DHT22;58475;49.662;9.636;2023-11-19T10:05:47;14.89;86.56
70851;DHT22;58475;49.662;9.636;2023-11-19T10:08:12;15.25;86.10
70851;DHT22;58475;49.662;9.636;2023-11-19T10:10:39;15.44;86.05
70851;DHT22;58475;49.662;9.636;2023-11-19T10:13:04;15.53;84.64
70851;DHT22;58475;49.662;9.636;2023-11-19T10:15:35;15.74;82.83
70851;DHT22;58475;49.662;9.636;2023-11-19T10:18:00;15.49;83.87
70851;DHT22;58475;49.662;9.636;2023-11-19T10:20:26;15.28;83.16
70851;DHT22;58475;49.662;9.636;2023-11-19T10:22:55;15.42;82.38
70851;DHT22;58475;49.662;9.636;2023-11-19T10:25:28;15.61;82.32
70851;DHT22;58475;49.662;9.636;2023-11-19T10:27:54;15.87;81.80
70851;DHT22;58475;49.662;9.636;2023-11-19T10:30:21;15.94;80.67
70851;DHT22;58475;49.662;9.636;2023-11-19T10:33:10;15.47;80.62
70851;DHT22;58475;49.662;9.636;2023-11-19T10:35:50;15.30;81.57
70851;DHT22;58475;49.662;9.636;2023-11-19T10:38:19;15.22;82.61
70851;DHT22;58475;49.662;9.636;2023-11-19T10:40:44;15.12;82.54
70851;DHT22;58475;49.662;9.636;2023-11-19T10:43:09;14.96;83.04
70851;DHT22;58475;49.662;9.636;2023-11-19T10:45:38;14.74;84.43
70851;DHT22;58475;49.662;9.636;2023-11-19T10:48:05;14.68;84.46
70851;DHT22;58475;49.662;9.636;2023-11-19T10:50:36;14.61;84.48
70851;DHT22;58475;49.662;9.636;2023-11-19T10:53:03;14.61;86.12
70851;DHT22;58475;49.662;9.636;2023-11-19T10:55:33;14.71;84.92
70851;DHT22;58475;49.662;9.636;2023-11-19T10:58:04;14.67;85.28
70851;DHT22;58475;49.662;9.636;2023-11-19T11:00:55;14.72;85.08
70851;DHT22;58475;49.662;9.636;2023-11-19T11:03:21;14.57;86.08
70851;DHT22;58475;49.662;9.636;2023-11-19T11:05:52;14.24;87.16
70851;DHT22;58475;49.662;9.636;2023-11-19T11:08:19;14.16;87.89
70851;DHT22;58475;49.662;9.636;2023-11-19T11:10:48;14.06;88.59
70851;DHT22;58475;49.662;9.636;2023-11-19T11:13:18;14.06;89.19
70851;DHT22;58475;49.662;9.636;2023-11-19T11:15:44;13.90;89.23
70851;DHT22;58475;49.662;9.636;2023-11-19T11:18:12;13.65;90.27
70851;DHT22;58475;49.662;9.636;2023-11-19T11:20:39;13.85;90.77
70851;DHT22;58475;49.662;9.636;2023-11-19T11:23:36;13.99;90.27
70851;DHT22;58475;49.662;9.636;2023-11-19T11:28:59;14.29;89.77
70851;DHT22;58475;49.662;9.636;2023-11-19T11:32:24;14.29;89.12
70851;DHT22;58475;49.662;9.636;2023-11-19T11:34:26;14.44;89.62
70851;DHT22;58475;49.662;9.636;2023-11-19T11:39:29;14.82;89.65
70851;DHT22;58475;49.662;9.636;2023-11-19T11:50:24;15.67;82.91
70851;DHT22;58475;49.662;9.636;2023-11-19T11:57:50;15.76;81.85
70851;DHT22;58475;49.662;9.636;2023-11-19T12:00:26;15.76;81.80
70851;DHT22;58475;49.662;9.636;2023-11-19T12:02:51;15.94;81.16
70851;DHT22;58475;49.662;9.636;2023-11-19T12:05:17;16.21;79.09
70851;DHT22;58475;49.662;9.636;2023-11-19T12:07:54;16.19;79.54
70851;DHT22;58475;49.662;9.636;2023-11-19T12:10:20;16.29;78.96
70851;DHT22;58475;49.662;9.636;2023-11-19T12:12:47;16.32;78.29
70851;DHT22;58475;49.662;9.636;2023-11-19T12:15:12;16.46;77.43
70851;DHT22;58475;49.662;9.636;2023-11-19T12:17:43;16.57;77.88
70851;DHT22;58475;49.662;9.636;2023-11-19T12:20:12;16.70;77.45
70851;DHT22;58475;49.662;9.636;2023-11-19T12:22:39;16.96;77.57
70851;DHT22;58475;49.662;9.636;2023-11-19T12:25:06;17.07;77.18
70851;DHT22;58475;49.662;9.636;2023-11-19T12:27:32;16.76;76.02
70851;DHT22;58475;49.662;9.636;2023-11-19T12:29:59;16.57;74.77
70851;DHT22;58475;49.662;9.636;2023-11-19T12:32:25;16.05;76.71
70851;DHT22;58475;49.662;9.636;2023-11-19T12:34:50;15.77;77.94
70851;DHT22;58475;49.662;9.636;2023-11-19T12:37:16;15.54;78.90
70851;DHT22;58475;49.662;9.636;2023-11-19T12:39:41;15.37;80.32
70851;DHT22;58475;49.662;9.636;2023-11-19T12:42:06;14.99;81.02
70851;DHT22;58475;49.662;9.636;2023-11-19T12:44:32;14.69;83.42
70851;DHT22;58475;49.662;9.636;2023-11-19T12:47:08;14.88;83.46
70851;DHT22;58475;49.662;9.636;2023-11-19T12:49:36;15.13;81.76
70851;DHT22;58475;49.662;9.636;2023-11-19T12:52:10;15.06;84.89
70851;DHT22;58475;49.662;9.636;2023-11-19T12:54:36;15.13;83.17
70851;DHT22;58475;49.662;9.636;2023-11-19T12:57:03;15.18;83.27
70851;DHT22;58475;49.662;9.636;2023-11-19T12:59:30;15.15;82.79
70851;DHT22;58475;49.662;9.636;2023-11-19T13:01:57;15.02;83.23
70851;DHT22;58475;49.662;9.636;2023-11-19T13:04:23;14.67;83.44
70851;DHT22;58475;49.662;9.636;2023-11-19T13:06:52;14.69;83.45
70851;DHT22;58475;49.662;9.636;2023-11-19T13:09:24;14.89;82.13
70851;DHT22;58475;49.662;9.636;2023-11-19T13:11:50;15.02;83.18
70851;DHT22;58475;49.662;9.636;2023-11-19T13:14:16;14.96;81.24
70851;DHT22;58475;49.662;9.636;2023-11-19T13:16:41;15.26;81.53
70851;DHT22;58475;49.662;9.636;2023-11-19T13:19:08;15.09;82.16
70851;DHT22;58475;49.662;9.636;2023-11-19T13:21:34;14.91;82.07
70851;DHT22;58475;49.662;9.636;2023-11-19T13:23:59;14.77;81.52
70851;DHT22;58475;49.662;9.636;2023-11-19T13:26:25;14.68;81.92
70851;DHT22;58475;49.662;9.636;2023-11-19T13:28:50;14.47;82.37
70851;DHT22;58475;49.662;9.636;2023-11-19T13:31:16;14.45;80.95
70851;DHT22;58475;49.662;9.636;2023-11-19T13:33:42;14.34;80.84
70851;DHT22;58475;49.662;9.636;2023-11-19T13:36:07;14.29;81.02
70851;DHT22;58475;49.662;9.636;2023-11-19T13:38:34;14.14;80.68
70851;DHT22;58475;49.662;9.636;2023-11-19T13:41:03;13.99;81.85
70851;DHT22;58475;49.662;9.636;2023-11-19T13:43:30;14.09;81.66
70851;DHT22;58475;49.662;9.636;2023-11-19T13:45:55;14.03;80.77
70851;DHT22;58475;49.662;9.636;2023-11-19T13:48:21;14.00;80.80
70851;DHT22;58475;49.662;9.636;2023-11-19T13:50:46;14.07;81.00
70851;DHT22;58475;49.662;9.636;2023-11-19T13:53:12;14.33;79.83
70851;DHT22;58475;49.662;9.636;2023-11-19T13:55:37;14.26;80.90
70851;DHT22;58475;49.662;9.636;2023-11-19T13:58:03;14.26;81.63
70851;DHT22;58475;49.662;9.636;2023-11-19T14:00:29;14.24;79.70
70851;DHT22;58475;49.662;9.636;2023-11-19T14:02:54;14.34;79.48
70851;DHT22;58475;49.662;9.636;2023-11-19T14:05:19;14.42;78.69
70851;DHT22;58475;49.662;9.636;2023-11-19T14:07:45;14.48;79.66
70851;DHT22;58475;49.662;9.636;2023-11-19T14:10:14;14.58;78.72
70851;DHT22;58475;49.662;9.636;2023-11-19T14:12:40;14.33;78.86
70851;DHT22;58475;49.662;9.636;2023-11-19T14:15:06;14.45;78.68
70851;DHT22;58475;49.662;9.636;2023-11-19T14:17:33;14.34;79.87
70851;DHT22;58475;49.662;9.636;2023-11-19T14:19:59;14.45;78.98
70851;DHT22;58475;49.662;9.636;2023-11-19T14:22:25;14.57;78.28
70851;DHT22;58475;49.662;9.636;2023-11-19T14:24:50;14.61;78.30
70851;DHT22;58475;49.662;9.636;2023-11-19T14:27:16;14.50;79.43
70851;DHT22;58475;49.662;9.636;2023-11-19T14:29:43;14.41;79.42
70851;DHT22;58475;49.662;9.636;2023-11-19T14:32:09;14.40;79.34
70851;DHT22;58475;49.662;9.636;2023-11-19T14:34:35;14.36;78.74
70851;DHT22;58475;49.662;9.636;2023-11-19T14:37:00;14.24;79.31
70851;DHT22;58475;49.662;9.636;2023-11-19T14:39:26;14.21;80.48
70851;DHT22;58475;49.662;9.636;2023-11-19T14:41:52;14.10;79.61
70851;DHT22;58475;49.662;9.636;2023-11-19T14:44:18;14.05;79.30
70851;DHT22;58475;49.662;9.636;2023-11-19T14:46:45;14.07;80.39
70851;DHT22;58475;49.662;9.636;2023-11-19T14:49:11;14.03;79.68
70851;DHT22;58475;49.662;9.636;2023-11-19T14:51:39;13.92;80.51
70851;DHT22;58475;49.662;9.636;2023-11-19T14:54:05;13.68;80.41
70851;DHT22;58475;49.662;9.636;2023-11-19T14:56:31;13.66;81.00
70851;DHT22;58475;49.662;9.636;2023-11-19T14:58:56;13.85;80.56
70851;DHT22;58475;49.662;9.636;2023-11-19T15:01:22;13.80;80.37
70851;DHT22;58475;49.662;9.636;2023-11-19T15:03:47;13.57;81.26
70851;DHT22;58475;49.662;9.636;2023-11-19T15:06:12;13.57;81.68
70851;DHT22;58475;49.662;9.636;2023-11-19T15:08:38;13.68;80.19
70851;DHT22;58475;49.662;9.636;2023-11-19T15:11:04;13.59;81.10
70851;DHT22;58475;49.662;9.636;2023-11-19T15:13:31;13.38;81.87
70851;DHT22;58475;49.662;9.636;2023-11-19T15:15:57;13.30;82.09
70851;DHT22;58475;49.662;9.636;2023-11-19T15:18:23;13.38;81.97
70851;DHT22;58475;49.662;9.636;2023-11-19T15:20:48;13.39;81.83
70851;DHT22;58475;49.662;9.636;2023-11-19T15:23:14;13.39;81.99
70851;DHT22;58475;49.662;9.636;2023-11-19T15:25:41;13.28;82.23
70851;DHT22;58475;49.662;9.636;2023-11-19T15:28:06;13.30;81.57
70851;DHT22;58475;49.662;9.636;2023-11-19T15:30:32;13.45;80.66
70851;DHT22;58475;49.662;9.636;2023-11-19T15:32:57;13.37;80.66
70851;DHT22;58475;49.662;9.636;2023-11-19T15:35:22;13.41;80.18
70851;DHT22;58475;49.662;9.636;2023-11-19T15:37:48;13.38;80.11
70851;DHT22;58475;49.662;9.636;2023-11-19T15:40:14;13.32;80.06
70851;DHT22;58475;49.662;9.636;2023-11-19T15:42:40;13.37;80.00
70851;DHT22;58475;49.662;9.636;2023-11-19T15:45:06;13.34;80.05
70851;DHT22;58475;49.662;9.636;2023-11-19T15:47:34;13.21;80.45
70851;DHT22;58475;49.662;9.636;2023-11-19T15:50:01;13.38;79.47
70851;DHT22;58475;49.662;9.636;2023-11-19T15:52:27;13.37;79.43